METAR Data
IDs: Format: Raw Decoded Include TAF

Data at: 2329 UTC 29 May 2020

Region: TOP
KATL 292252Z 15006KT 10SM FEW035 SCT070 BKN110 BKN250 24/20 A3002 RMK AO2 RAE2155 SLP156 TCU DSNT NE-SE-S P0000 T02440200

KBOS 292254Z 20013G21KT 10SM BKN027 BKN035 OVC200 24/19 A2989 RMK AO2 SLP121 T02390194

KBWI 292254Z 19007KT 170V230 10SM SCT030 BKN050 BKN120 BKN200 29/22 A2989 RMK AO2 SLP120 T02940222

KCLE 292251Z 29007KT 10SM OVC110 16/14 A2996 RMK AO2 SLP142 T01610139 $

KCLT 292252Z 15007KT 10SM FEW030 FEW050 BKN120 BKN150 24/20 A2999 RMK AO2 SLP149 CB DSNT NW T02440200

KCVG 292252Z 34010KT 10SM FEW026 FEW060 BKN100 BKN180 22/14 A2999 RMK AO2 SLP146 T02170144 $

KDCA 292252Z 20013KT 10SM SCT030 SCT140 BKN250 28/22 A2991 RMK AO2 SLP127 T02830222

KDEN 292253Z 10004KT 10SM BKN090 BKN140 BKN220 29/08 A3012 RMK AO2 SLP124 T02890078

KDFW 292253Z 04009KT 10SM FEW050 FEW300 31/14 A3010 RMK AO2 SLP183 T03060144 $

KDTW 292253Z 29005KT 10SM FEW045 SCT220 22/11 A2992 RMK AO2 SLP130 T02170111

KEWR 292251Z 19013KT 10SM FEW038TCU FEW055 SCT120 BKN200 BKN250 28/21 A2987 RMK AO2 SLP115 TCU SW T02830211

KFLL 292253Z 13013KT 10SM FEW021 SCT025 BKN250 29/24 A2999 RMK AO2 RAE2157 SLP155 P0000 T02890239

KIAD 292252Z 19010G17KT 10SM FEW028 BKN120 OVC250 27/21 A2991 RMK AO2 SLP124 T02670211

KIAH 292253Z 02009KT 10SM SCT048 BKN250 31/18 A3000 RMK AO2 SLP160 T03110183

KJFK 292251Z 18019KT 10SM VCFG FEW005 FEW036 SCT100 BKN250 19/17 A2992 RMK AO2 PK WND 18028/2159 SLP130 TCU DSNT NW VCFG SE-S T01890172

KLAS 292256Z 23016G21KT 10SM FEW120 FEW200 41/M03 A2983 RMK AO2 SLP070 T04061033

KLAX 292253Z 24011KT 10SM FEW010 BKN021 BKN120 19/14 A2998 RMK AO2 SLP149 T01890139

KLGA 292251Z 18009KT 10SM FEW035 SCT140 BKN250 24/18 A2988 RMK AO2 SLP118 TCU DSNT W-DSNT NW T02440183

KMCO 292253Z 15005KT 10SM FEW060 SCT100 SCT140 BKN250 29/21 A3001 RMK AO2 LTG DSNT NW SLP160 T02890211 $

KMDW 292253Z 31014G20KT 10SM BKN055 21/09 A3000 RMK AO2 SLP155 T02110094

KMEM 292254Z 36009KT 10SM FEW055 27/13 A3004 RMK AO2 SLP169 T02720128

KMIA 292253Z 11011KT 10SM SCT026 BKN250 29/23 A3000 RMK AO2 SLP158 T02890233 $

KMSP 292253Z 34006KT 10SM SCT040 SCT250 19/07 A3013 RMK AO2 SLP203 T01890072

KORD 292251Z 33013KT 10SM BKN065 22/09 A3001 RMK AO2 SLP158 T02170094 $

KPDX 292253Z 31009KT 10SM FEW200 BKN250 28/11 A2982 RMK AO2 SLP097 T02830111

KPHL 292254Z 19009KT 10SM SCT045 BKN150 OVC250 27/21 A2989 RMK AO2 LTG DSNT N SLP121 T02720211

KPHX 292251Z VRB06KT 10SM FEW120 FEW200 43/04 A2975 RMK AO2 SLP053 CB DSNT E AND SE T04330044

KPIT 292251Z 30007KT 10SM -RA FEW009 SCT028 BKN100 18/17 A2992 RMK AO2 LTG DSNT E AND SE SLP133 P0014 T01780167 $

KSAN 292251Z 27007KT 10SM BKN019 21/14 A3000 RMK AO2 SLP157 T02060139

KSEA 292253Z 36009KT 10SM FEW150 BKN180 BKN250 26/09 A2989 RMK AO2 SLP126 T02610094

KSFO 292256Z 20022G28KT 10SM FEW017 SCT090 BKN180 21/12 A2984 RMK AO2 PK WND 20029/2253 SLP106 T02110117

KSLC 292254Z 08004KT 10SM FEW100 FEW200 34/04 A2999 RMK AO2 SLP093 T03440039

KSTL 292251Z 30011KT 10SM FEW035 25/09 A3007 RMK AO2 SLP173 T02500089

KTPA 292253Z 24003KT 10SM TS SCT045CB BKN230 31/21 A3003 RMK AO2 LTG DSNT E AND SE TSB46 SLP169 FRQ LTGICCG NE-SE TS NE-SE MOV NW VCSH NE-SE T03060211